createdAt,value
2017-10-20T00:00:20.353Z,67.60
2017-10-20T00:02:47.299Z,70.40
2017-10-20T00:05:14.269Z,68.30
2017-10-20T00:07:42.189Z,71.20
2017-10-20T00:10:10.057Z,70.70
2017-10-20T00:12:37.922Z,70.83
2017-10-20T00:15:04.889Z,65.43
2017-10-20T00:17:31.837Z,69.63
2017-10-20T00:19:58.781Z,71.60
2017-10-20T00:22:25.731Z,69.73
2017-10-20T00:24:53.353Z,69.93
2017-10-20T00:27:20.497Z,77.63
2017-10-20T00:29:47.433Z,67.87
2017-10-20T00:32:14.391Z,75.77
2017-10-20T00:34:41.328Z,74.70
2017-10-20T00:37:08.323Z,82.10
2017-10-20T00:39:35.286Z,79.97
2017-10-20T00:42:03.058Z,80.90
2017-10-20T00:44:30.014Z,76.70
2017-10-20T00:46:56.986Z,78.17
2017-10-20T00:49:24.004Z,80.30
2017-10-20T00:51:50.983Z,85.07
2017-10-20T00:54:17.924Z,89.47
2017-10-20T00:56:45.892Z,93.13
2017-10-20T00:59:12.837Z,85.17
2017-10-20T01:01:39.785Z,88.27
2017-10-20T01:04:06.745Z,89.37
2017-10-20T01:06:33.698Z,83.63
2017-10-20T01:09:00.660Z,89.37
2017-10-20T01:11:28.373Z,94.60
2017-10-20T01:13:55.333Z,98.93
2017-10-20T01:16:22.276Z,88.93
2017-10-20T01:18:49.669Z,89.40
2017-10-20T01:21:17.394Z,81.13
2017-10-20T01:23:44.369Z,77.37
2017-10-20T01:26:11.325Z,88.13
2017-10-20T01:28:40.085Z,86.13
2017-10-20T01:31:07.037Z,87.53
2017-10-20T01:33:33.988Z,84.63
2017-10-20T01:36:01.734Z,72.67
2017-10-20T01:38:28.682Z,83.17
2017-10-20T01:40:55.653Z,79.23
2017-10-20T01:43:23.372Z,71.03
2017-10-20T01:45:50.336Z,71.07
2017-10-20T01:48:18.794Z,70.67
2017-10-20T01:50:45.749Z,74.47
2017-10-20T01:53:14.307Z,72.57
2017-10-20T01:55:42.114Z,76.70
2017-10-20T01:58:09.069Z,75.53
2017-10-20T02:00:36.802Z,73.47
2017-10-20T02:03:05.659Z,76.83
2017-10-20T02:05:32.618Z,71.30
2017-10-20T02:07:59.563Z,76.70
2017-10-20T02:10:26.541Z,69.73
2017-10-20T02:12:55.523Z,75.20
2017-10-20T02:15:22.499Z,70.67
2017-10-20T02:17:49.442Z,70.50
2017-10-20T02:20:16.421Z,64.90
2017-10-20T02:22:43.364Z,68.90
2017-10-20T02:25:10.337Z,64.63
2017-10-20T02:27:37.323Z,67.37
2017-10-20T02:30:04.284Z,70.53
2017-10-20T02:32:32.957Z,68.20
2017-10-20T02:35:01.981Z,65.77
2017-10-20T02:37:28.933Z,65.87
2017-10-20T02:39:56.816Z,69.33
2017-10-20T02:42:23.769Z,64.97
2017-10-20T02:44:50.733Z,67.67
2017-10-20T02:47:17.682Z,69.30
2017-10-20T02:49:44.673Z,63.60
2017-10-20T02:52:11.735Z,62.20
2017-10-20T02:54:38.713Z,64.97
2017-10-20T02:57:05.661Z,64.50
2017-10-20T02:59:32.632Z,63.10
2017-10-20T03:01:59.606Z,64.60
2017-10-20T03:04:26.598Z,65.07
2017-10-20T03:06:53.557Z,60.47
2017-10-20T03:09:21.421Z,63.27
2017-10-20T03:11:48.389Z,61.20
2017-10-20T03:14:15.344Z,63.90
2017-10-20T03:16:42.310Z,66.30
2017-10-20T03:19:09.252Z,62.23
2017-10-20T03:21:36.221Z,62.47
2017-10-20T03:24:03.177Z,59.53
2017-10-20T03:26:30.149Z,60.90
2017-10-20T03:28:57.869Z,64.07
2017-10-20T03:31:24.849Z,58.23
2017-10-20T03:33:51.793Z,61.20
2017-10-20T03:36:19.535Z,62.23
2017-10-20T03:38:46.472Z,59.20
2017-10-20T03:41:15.469Z,57.80
2017-10-20T03:43:43.409Z,62.50
2017-10-20T03:46:10.409Z,60.83
2017-10-20T03:48:37.365Z,63.27
2017-10-20T03:51:04.304Z,67.20
2017-10-20T03:53:32.042Z,63.80
2017-10-20T03:55:59.309Z,61.37
2017-10-20T03:58:26.276Z,60.63
2017-10-20T04:00:53.223Z,63.67
2017-10-20T04:03:20.184Z,60.40
2017-10-20T04:05:47.145Z,58.50
2017-10-20T04:08:14.138Z,54.23
2017-10-20T04:10:41.105Z,58.90
2017-10-20T04:13:08.833Z,58.87
2017-10-20T04:15:35.772Z,60.17
2017-10-20T04:18:02.734Z,59.10
2017-10-20T04:20:29.676Z,57.80
2017-10-20T04:22:56.645Z,56.60
2017-10-20T04:25:24.373Z,64.13
2017-10-20T04:27:51.345Z,56.43
2017-10-20T04:30:18.289Z,59.03
2017-10-20T04:32:45.263Z,56.80
2017-10-20T04:35:12.235Z,60.03
2017-10-20T04:37:39.220Z,56.13
2017-10-20T04:40:06.931Z,56.27
2017-10-20T04:42:33.897Z,56.57
2017-10-20T04:45:00.872Z,59.63
2017-10-20T04:47:28.584Z,60.47
2017-10-20T04:49:55.561Z,57.80
2017-10-20T04:52:22.509Z,55.87
2017-10-20T04:54:49.476Z,58.20
2017-10-20T04:57:17.198Z,63.50
2017-10-20T04:59:44.165Z,59.97
2017-10-20T05:02:11.106Z,61.17
2017-10-20T05:04:38.076Z,60.13
2017-10-20T05:07:05.784Z,59.73
2017-10-20T05:09:32.763Z,61.43
2017-10-20T05:11:59.711Z,58.53
2017-10-20T05:14:26.653Z,60.83
2017-10-20T05:16:53.620Z,63.27
2017-10-20T05:19:22.505Z,60.73
2017-10-20T05:21:49.474Z,66.57
2017-10-20T05:24:16.430Z,63.60
2017-10-20T05:26:43.402Z,56.83
2017-10-20T05:29:11.127Z,60.20
2017-10-20T05:31:38.096Z,59.33
2017-10-20T05:34:05.824Z,56.07
2017-10-20T05:36:32.892Z,59.93
2017-10-20T05:38:59.865Z,58.87
2017-10-20T05:41:27.580Z,61.00
2017-10-20T05:43:54.545Z,60.47
2017-10-20T05:46:21.537Z,55.80
2017-10-20T05:48:48.467Z,59.20
2017-10-20T05:51:17.194Z,58.70
2017-10-20T05:53:44.157Z,59.63
2017-10-20T05:56:11.104Z,57.70
2017-10-20T05:58:39.000Z,57.90
2017-10-20T06:01:06.917Z,62.23
2017-10-20T06:03:33.908Z,55.70
2017-10-20T06:06:01.827Z,57.53
2017-10-20T06:08:30.721Z,61.57
2017-10-20T06:10:59.626Z,58.07
2017-10-20T06:13:26.584Z,54.30
2017-10-20T06:15:53.518Z,60.53
2017-10-20T06:18:20.497Z,56.73
2017-10-20T06:20:47.428Z,55.10
2017-10-20T06:23:15.378Z,57.60
2017-10-20T06:25:42.336Z,56.20
2017-10-20T06:28:09.316Z,54.53
2017-10-20T06:30:37.156Z,50.73
2017-10-20T06:33:04.943Z,53.27
2017-10-20T06:35:33.643Z,54.77
2017-10-20T06:38:00.701Z,52.73
2017-10-20T06:40:27.645Z,51.77
2017-10-20T06:42:54.603Z,50.47
2017-10-20T06:45:21.565Z,52.57
2017-10-20T06:47:48.566Z,52.93
2017-10-20T06:50:15.528Z,52.50
2017-10-20T06:52:42.568Z,56.90
2017-10-20T06:55:09.553Z,54.70
2017-10-20T06:57:36.517Z,50.77
2017-10-20T07:00:04.590Z,49.77
2017-10-20T07:02:31.556Z,47.10
2017-10-20T07:05:03.706Z,55.40
2017-10-20T07:07:31.744Z,52.13
2017-10-20T07:09:58.705Z,50.20
2017-10-20T07:12:26.207Z,45.73
2017-10-20T07:14:54.079Z,48.40
2017-10-20T07:17:21.026Z,47.40
2017-10-20T07:19:47.998Z,46.30
2017-10-20T07:22:14.965Z,45.07
2017-10-20T07:24:41.950Z,51.73
2017-10-20T07:27:09.661Z,46.13
2017-10-20T07:29:36.634Z,43.67
2017-10-20T07:32:03.583Z,47.33
2017-10-20T07:34:30.545Z,45.17
2017-10-20T07:36:57.504Z,43.00
2017-10-20T07:39:24.462Z,42.23
2017-10-20T07:41:52.861Z,43.10
2017-10-20T07:44:20.749Z,40.80
2017-10-20T07:46:47.693Z,41.67
2017-10-20T07:49:15.672Z,40.47
2017-10-20T07:51:43.600Z,42.27
2017-10-20T07:54:10.543Z,43.27
2017-10-20T07:56:37.498Z,42.43
2017-10-20T07:59:04.446Z,40.10
2017-10-20T08:01:31.417Z,42.93
2017-10-20T08:03:58.368Z,44.17
2017-10-20T08:06:25.473Z,42.30
2017-10-20T08:08:52.428Z,43.80
2017-10-20T08:11:19.426Z,38.70
2017-10-20T08:13:46.370Z,41.90
2017-10-20T08:16:14.097Z,44.43
2017-10-20T08:18:41.029Z,41.47
2017-10-20T08:21:07.986Z,39.97
2017-10-20T08:23:34.923Z,39.63
2017-10-20T08:26:01.877Z,40.63
2017-10-20T08:28:28.855Z,39.17
2017-10-20T08:30:57.584Z,40.17
2017-10-20T08:33:25.448Z,40.00
2017-10-20T08:35:52.394Z,39.23
2017-10-20T08:38:19.364Z,39.33
2017-10-20T08:40:48.348Z,37.07
2017-10-20T08:43:15.333Z,37.83
2017-10-20T08:45:45.009Z,37.57
2017-10-20T08:48:11.967Z,41.47
2017-10-20T08:50:38.933Z,37.93
2017-10-20T08:53:06.666Z,38.33
2017-10-20T08:55:33.613Z,42.13
2017-10-20T08:58:00.578Z,38.87
2017-10-20T09:00:28.274Z,37.27
2017-10-20T09:02:55.249Z,38.00
2017-10-20T09:05:22.219Z,35.50
2017-10-20T09:07:49.184Z,37.20
2017-10-20T09:10:16.892Z,34.97
2017-10-20T09:12:43.860Z,36.30
2017-10-20T09:15:10.810Z,35.93
2017-10-20T09:17:38.776Z,36.37
2017-10-20T09:20:05.736Z,33.60
2017-10-20T09:22:32.803Z,35.37
2017-10-20T09:25:00.519Z,35.00
2017-10-20T09:27:27.534Z,36.23
2017-10-20T09:29:54.517Z,33.43
2017-10-20T09:32:21.488Z,33.73
2017-10-20T09:34:48.439Z,35.30
2017-10-20T09:37:16.190Z,34.10
2017-10-20T09:39:44.156Z,32.13
2017-10-20T09:42:11.101Z,34.17
2017-10-20T09:44:38.093Z,33.07
2017-10-20T09:47:06.110Z,33.47
2017-10-20T09:49:33.075Z,32.27
2017-10-20T09:52:00.785Z,30.70
2017-10-20T09:54:28.745Z,30.03
2017-10-20T09:56:55.716Z,30.80
2017-10-20T09:59:25.373Z,31.87
2017-10-20T10:01:53.282Z,31.57
2017-10-20T10:04:21.171Z,30.27
2017-10-20T10:06:48.157Z,31.67
2017-10-20T10:09:17.109Z,30.00
2017-10-20T10:11:44.055Z,30.70
2017-10-20T10:14:11.019Z,30.70
2017-10-20T10:16:38.746Z,29.80
2017-10-20T10:19:05.758Z,27.87
2017-10-20T10:21:32.700Z,29.07
2017-10-20T10:24:00.610Z,29.30
2017-10-20T10:26:27.552Z,29.87
2017-10-20T10:28:54.516Z,29.90
2017-10-20T10:31:21.454Z,30.70
2017-10-20T10:33:48.416Z,31.13
2017-10-20T10:36:16.346Z,26.70
2017-10-20T10:38:45.215Z,27.20
2017-10-20T10:41:12.206Z,27.30
2017-10-20T10:43:39.157Z,28.83
2017-10-20T10:46:06.157Z,29.60
2017-10-20T10:48:34.160Z,29.80
2017-10-20T10:51:02.174Z,29.70
2017-10-20T10:53:29.120Z,30.53
2017-10-20T10:55:56.087Z,31.33
2017-10-20T10:58:24.063Z,29.47
2017-10-20T11:00:51.039Z,30.10
2017-10-20T11:03:22.871Z,29.43
2017-10-20T11:06:01.760Z,29.87
2017-10-20T11:11:36.685Z,28.90
2017-10-20T11:14:04.608Z,30.57
2017-10-20T11:16:31.584Z,30.03
2017-10-20T11:18:58.533Z,32.00
2017-10-20T11:21:29.103Z,31.93
2017-10-20T11:23:56.246Z,31.43
2017-10-20T11:26:23.240Z,32.97
2017-10-20T11:28:50.223Z,31.70
2017-10-20T11:31:17.168Z,31.40
2017-10-20T11:33:44.898Z,32.40
2017-10-20T11:36:11.865Z,31.13
2017-10-20T11:38:38.813Z,33.80
2017-10-20T11:41:06.565Z,33.60
2017-10-20T11:43:33.509Z,33.50
2017-10-20T11:46:00.465Z,34.97
2017-10-20T11:48:27.480Z,31.80
2017-10-20T11:50:54.460Z,33.00
2017-10-20T11:53:22.184Z,34.13
2017-10-20T11:55:50.058Z,34.60
2017-10-20T11:58:17.994Z,34.43
2017-10-20T12:00:44.955Z,34.57
2017-10-20T12:03:11.896Z,31.73
2017-10-20T12:05:38.866Z,32.93
2017-10-20T12:08:07.831Z,31.43
2017-10-20T12:10:34.802Z,32.53
2017-10-20T12:13:01.740Z,32.87
2017-10-20T12:15:28.754Z,32.13
2017-10-20T12:17:55.704Z,32.20
2017-10-20T12:20:24.693Z,31.83
2017-10-20T12:22:51.629Z,32.70
2017-10-20T12:25:19.723Z,30.27
2017-10-20T12:27:46.670Z,28.90
2017-10-20T12:30:13.612Z,30.60
2017-10-20T12:32:40.578Z,31.50
2017-10-20T12:35:07.601Z,32.83
2017-10-20T12:37:34.561Z,33.67
2017-10-20T12:40:01.502Z,29.87
2017-10-20T12:42:28.949Z,32.73
2017-10-20T12:44:55.907Z,31.97
2017-10-20T12:47:22.993Z,31.60
2017-10-20T12:49:49.933Z,34.50
2017-10-20T12:52:17.853Z,31.90
2017-10-20T12:54:44.792Z,31.97
2017-10-20T12:57:13.692Z,33.83
2017-10-20T12:59:40.634Z,34.87
2017-10-20T13:02:07.586Z,36.33
2017-10-20T13:04:35.581Z,33.50
2017-10-20T13:07:03.517Z,34.30
2017-10-20T13:09:30.485Z,35.30
2017-10-20T13:11:57.438Z,30.77
2017-10-20T13:14:24.424Z,29.80
2017-10-20T13:16:52.330Z,30.83
2017-10-20T13:19:19.287Z,25.63
2017-10-20T13:21:49.892Z,24.80
2017-10-20T13:24:17.917Z,22.13
2017-10-20T13:26:46.671Z,24.60
2017-10-20T13:29:13.644Z,21.07
2017-10-20T13:31:40.608Z,21.33
2017-10-20T13:34:15.148Z,21.07
2017-10-20T13:36:42.106Z,21.87
2017-10-20T13:39:09.065Z,23.47
2017-10-20T13:41:36.022Z,22.67
2017-10-20T13:44:04.990Z,22.33
2017-10-20T13:46:32.873Z,21.97
2017-10-20T13:49:01.824Z,23.70
2017-10-20T13:51:29.717Z,25.10
2017-10-20T13:53:56.702Z,24.17
2017-10-20T13:56:25.582Z,24.53
2017-10-20T13:58:54.650Z,23.30
2017-10-20T14:01:26.005Z,24.27
2017-10-20T14:03:52.979Z,26.07
2017-10-20T14:06:19.987Z,24.67
2017-10-20T14:08:46.970Z,27.47
2017-10-20T14:11:15.978Z,25.97
2017-10-20T14:13:43.760Z,27.80
2017-10-20T14:16:14.306Z,31.80
2017-10-20T14:18:42.235Z,27.23
2017-10-20T14:21:11.188Z,22.77
2017-10-20T14:23:41.972Z,24.97
2017-10-20T14:26:09.700Z,24.60
2017-10-20T14:28:36.635Z,23.97
2017-10-20T14:31:04.879Z,23.93
2017-10-20T14:33:32.817Z,24.00
2017-10-20T14:36:00.786Z,25.00
2017-10-20T14:38:28.520Z,24.40
2017-10-20T14:40:55.483Z,23.97
2017-10-20T14:43:25.205Z,24.80
2017-10-20T14:45:52.938Z,22.43
2017-10-20T14:48:20.162Z,24.83
2017-10-20T14:50:47.105Z,23.43
2017-10-20T14:53:14.079Z,24.63
2017-10-20T14:55:41.045Z,22.00
2017-10-20T14:58:08.006Z,23.43
2017-10-20T15:00:34.996Z,22.17
2017-10-20T15:03:01.953Z,22.03
2017-10-20T15:05:29.895Z,24.30
2017-10-20T15:07:58.817Z,23.03
2017-10-20T15:10:25.753Z,24.50
2017-10-20T15:12:54.645Z,23.93
2017-10-20T15:15:25.277Z,22.50
2017-10-20T15:17:52.246Z,26.87
2017-10-20T15:20:19.189Z,25.27
2017-10-20T15:22:46.171Z,24.63
2017-10-20T15:25:13.116Z,24.90
2017-10-20T15:27:40.074Z,23.20
2017-10-20T15:30:07.022Z,23.43
2017-10-20T15:32:36.097Z,26.17
2017-10-20T15:35:03.843Z,24.03
2017-10-20T15:37:31.618Z,24.90
2017-10-20T15:39:58.573Z,25.43
2017-10-20T15:42:29.692Z,24.83
2017-10-20T15:44:57.416Z,24.47
2017-10-20T15:47:24.358Z,23.40
2017-10-20T15:49:51.335Z,23.23
2017-10-20T15:52:19.304Z,25.80
2017-10-20T15:54:46.254Z,24.40
2017-10-20T15:57:13.224Z,25.23
2017-10-20T15:59:43.656Z,26.13
2017-10-20T16:02:11.561Z,28.60
2017-10-20T16:04:51.457Z,27.33
2017-10-20T16:07:19.179Z,26.70
2017-10-20T16:09:46.133Z,26.17
2017-10-20T16:12:13.115Z,26.00
2017-10-20T16:14:40.917Z,27.40
2017-10-20T16:17:12.141Z,26.67
2017-10-20T16:19:39.117Z,24.80
2017-10-20T16:22:06.111Z,25.03
2017-10-20T16:24:33.244Z,27.70
2017-10-20T16:27:02.012Z,25.80
2017-10-20T16:29:29.128Z,24.60
2017-10-20T16:31:59.878Z,25.50
2017-10-20T16:34:26.822Z,26.93
2017-10-20T16:36:56.922Z,25.93
2017-10-20T16:39:23.886Z,27.80
2017-10-20T16:41:50.875Z,28.10
2017-10-20T16:44:18.694Z,25.57
2017-10-20T16:46:46.665Z,27.53
2017-10-20T16:49:13.608Z,25.33
2017-10-20T16:51:40.561Z,26.70
2017-10-20T16:54:07.628Z,28.13
2017-10-20T16:56:34.740Z,25.27
2017-10-20T16:59:01.681Z,25.37
2017-10-20T17:01:28.607Z,26.17
2017-10-20T17:03:55.549Z,24.93
2017-10-20T17:06:24.254Z,25.10
2017-10-20T17:08:51.214Z,23.10
2017-10-20T17:11:18.153Z,24.33
2017-10-20T17:13:45.110Z,20.20
2017-10-20T17:16:14.084Z,21.70
2017-10-20T17:18:41.070Z,19.93
2017-10-20T17:21:08.049Z,21.00
2017-10-20T17:23:35.009Z,19.53
2017-10-20T17:26:01.965Z,20.87
2017-10-20T17:28:28.921Z,19.80
2017-10-20T17:30:56.929Z,18.37
2017-10-20T17:33:24.871Z,17.27
2017-10-20T17:35:51.877Z,18.27
2017-10-20T17:38:18.845Z,16.43
2017-10-20T17:40:45.802Z,16.77
2017-10-20T17:43:13.803Z,17.40
2017-10-20T17:45:40.809Z,16.67
2017-10-20T17:48:09.760Z,19.07
2017-10-20T17:50:37.506Z,17.90
2017-10-20T17:53:05.477Z,18.77
2017-10-20T17:55:32.414Z,21.77
2017-10-20T17:58:00.337Z,19.80
2017-10-20T18:00:27.303Z,19.20
2017-10-20T18:02:54.256Z,21.20
2017-10-20T18:05:21.244Z,21.87
2017-10-20T18:07:49.957Z,20.47
2017-10-20T18:10:18.879Z,19.37
2017-10-20T18:12:45.940Z,20.07
2017-10-20T18:15:16.491Z,20.53
2017-10-20T18:17:47.532Z,21.50
2017-10-20T18:20:16.558Z,21.30
2017-10-20T18:22:47.787Z,24.23
2017-10-20T18:25:15.744Z,26.80
2017-10-20T18:27:45.397Z,27.97
2017-10-20T18:30:13.239Z,25.93
2017-10-20T18:32:41.011Z,26.53
2017-10-20T18:35:11.648Z,23.83
2017-10-20T18:37:38.607Z,22.30
2017-10-20T18:40:06.697Z,23.00
2017-10-20T18:42:35.755Z,24.43
2017-10-20T18:45:03.016Z,24.70
2017-10-20T18:47:30.983Z,24.70
2017-10-20T18:50:01.733Z,25.20
2017-10-20T18:52:28.677Z,28.23
2017-10-20T18:54:55.806Z,23.13
2017-10-20T18:57:23.768Z,24.57
2017-10-20T18:59:52.674Z,23.73
2017-10-20T19:02:20.646Z,24.47
2017-10-20T19:04:49.009Z,25.70
2017-10-20T19:07:19.126Z,25.37
2017-10-20T19:09:46.494Z,23.17
2017-10-20T19:12:13.624Z,25.17
2017-10-20T19:14:40.646Z,27.60
2017-10-20T19:17:07.608Z,25.77
2017-10-20T19:19:35.630Z,26.77
2017-10-20T19:22:02.582Z,24.57
2017-10-20T19:24:29.549Z,23.47
2017-10-20T19:26:57.262Z,24.50
2017-10-20T19:29:24.225Z,22.90
2017-10-20T19:31:51.188Z,22.20
2017-10-20T19:34:18.906Z,18.80
2017-10-20T19:36:45.869Z,18.13
2017-10-20T19:39:12.849Z,18.17
2017-10-20T19:41:40.616Z,16.57
2017-10-20T19:44:08.335Z,15.70
2017-10-20T19:46:35.305Z,15.70
2017-10-20T19:49:02.306Z,13.87
2017-10-20T19:51:29.273Z,16.10
2017-10-20T19:53:57.214Z,13.97
2017-10-20T19:56:24.272Z,13.27
2017-10-20T19:58:51.259Z,14.00
2017-10-20T20:01:18.204Z,11.97
2017-10-20T20:03:46.125Z,17.93
2017-10-20T20:06:13.170Z,13.33
2017-10-20T20:08:40.129Z,14.70
2017-10-20T20:11:07.118Z,14.03
2017-10-20T20:13:34.880Z,14.07
2017-10-20T20:16:02.641Z,14.10
2017-10-20T20:18:29.586Z,14.27
2017-10-20T20:20:57.359Z,12.90
2017-10-20T20:23:26.136Z,12.70
2017-10-20T20:25:57.270Z,12.57
2017-10-20T20:28:24.224Z,12.00
2017-10-20T20:30:51.210Z,11.67
2017-10-20T20:33:18.179Z,12.13
2017-10-20T20:35:45.115Z,10.83
2017-10-20T20:38:12.117Z,10.77
2017-10-20T20:40:40.979Z,10.47
2017-10-20T20:43:07.965Z,11.13
2017-10-20T20:45:34.942Z,11.80
2017-10-20T20:48:02.911Z,11.47
2017-10-20T20:50:29.888Z,11.73
2017-10-20T20:52:56.905Z,12.00
2017-10-20T20:55:23.899Z,13.20
2017-10-20T20:57:54.572Z,12.80
2017-10-20T21:00:23.517Z,14.10
2017-10-20T21:02:52.268Z,14.00
2017-10-20T21:05:19.266Z,15.00
2017-10-20T21:07:47.000Z,18.03
2017-10-20T21:10:15.575Z,17.00
2017-10-20T21:12:42.517Z,17.10
2017-10-20T21:15:09.544Z,17.10
2017-10-20T21:17:38.431Z,16.90
2017-10-20T21:20:07.465Z,15.83
2017-10-20T21:22:35.481Z,16.33
2017-10-20T21:25:02.597Z,17.80
2017-10-20T21:27:30.398Z,18.23
2017-10-20T21:29:57.496Z,26.20
2017-10-20T21:32:24.469Z,18.43
2017-10-20T21:34:52.472Z,16.30
2017-10-20T21:37:19.503Z,15.53
2017-10-20T21:39:46.563Z,14.83
2017-10-20T21:42:14.621Z,14.80
2017-10-20T21:44:41.743Z,14.50
2017-10-20T21:47:10.840Z,13.10
2017-10-20T21:49:38.921Z,15.70
2017-10-20T21:52:05.902Z,14.70
2017-10-20T21:54:32.883Z,15.00
2017-10-20T21:57:11.476Z,14.13
2017-10-20T21:59:43.189Z,13.57
2017-10-20T22:02:12.344Z,14.57
2017-10-20T22:04:39.352Z,12.27
2017-10-20T22:07:06.340Z,14.03
2017-10-20T22:09:33.331Z,13.67
2017-10-20T22:12:00.450Z,13.23
2017-10-20T22:14:28.501Z,13.63
2017-10-20T22:16:55.501Z,13.97
2017-10-20T22:19:23.410Z,13.53
2017-10-20T22:21:53.596Z,12.90
2017-10-20T22:24:21.400Z,14.03
2017-10-20T22:26:48.465Z,13.07
2017-10-20T22:29:16.188Z,14.10
2017-10-20T22:31:43.140Z,13.37
2017-10-20T22:34:11.103Z,13.40
2017-10-20T22:36:38.049Z,13.30
2017-10-20T22:39:06.019Z,16.43
2017-10-20T22:41:39.027Z,13.93
2017-10-20T22:44:06.877Z,14.30
2017-10-20T22:46:33.828Z,14.60
2017-10-20T22:49:00.799Z,14.33
2017-10-20T22:51:28.510Z,13.67
2017-10-20T22:53:55.468Z,14.87
2017-10-20T22:56:22.422Z,15.00
2017-10-20T22:58:49.389Z,14.73
2017-10-20T23:01:16.333Z,15.30
2017-10-20T23:03:43.303Z,15.70
2017-10-20T23:06:10.271Z,16.93
2017-10-20T23:08:37.245Z,17.10
2017-10-20T23:11:05.203Z,16.93
2017-10-20T23:13:33.163Z,16.67
2017-10-20T23:16:00.098Z,17.17
2017-10-20T23:18:27.057Z,17.10
2017-10-20T23:20:53.997Z,18.97
2017-10-20T23:23:20.980Z,17.50
2017-10-20T23:25:47.922Z,17.43
2017-10-20T23:28:14.870Z,20.00
2017-10-20T23:30:41.812Z,18.50
2017-10-20T23:33:08.774Z,20.07
2017-10-20T23:35:37.501Z,19.30
2017-10-20T23:38:04.481Z,19.27
2017-10-20T23:40:31.424Z,17.60
2017-10-20T23:42:58.380Z,19.57
2017-10-20T23:45:25.319Z,21.00
2017-10-20T23:47:52.277Z,17.97
2017-10-20T23:50:19.226Z,19.10
2017-10-20T23:52:46.963Z,19.80
2017-10-20T23:55:13.930Z,19.17
2017-10-20T23:57:42.153Z,20.90
